Florence, Arkansas
Current Conditions -  °F | °C
As of 3:53 PM on Saturday 20 Dec 2014 (Local Time) from KLLQ Reporting Station
Clear Clear  
Wind Chill: 53°   Ceiling: Unl
Heat Index: 53°   Visibility: 10mi
Dew Point: 39°   Wind: 7mph
Humidity: 59%   Direction: 50°NE
Pressure: 30.2"   Gusts: NA
Location:  33.5819°N, 91.7907°W
Report Text: KLLQ 202153Z AUTO 05006KT 10SM CLR 12/04 A3020 RMK AO2 SLP225 T01170039
Loading
Personal Weather Stations






























Interactive Weather Map New forecast layout! Learn more

10-Day Weather Forecast

Advertisements
Track Severe Weather on mobile